• Join FlightAware (Why Join?)
  • Login
  • US Flag 
05:14AM EST


 

Airport Tracker/Info


-or-


 

Live Flight TrackerFlight Track Log ✈ N8800G ✈ 09-Jun-2013 ✈ KDTW - KPIA

Flight Track Log - Related Links

Times and Time Zones

All times are in EDT time to prevent confusion due to time zone crossing. See the N8800G flight status page for this flight to view local times or setup timezone preferences in your user account.

Time Position Orientation Groundspeed Altitude Reporting Facility
EDT Latitude Longitude Course Direction KTS MPH feet Rate Location/Type
10:11AM 42.2058 -83.3556 276° West 149 171 1,300  Level Cleveland Center
10:12AM 42.1600 -83.4375 233° Southwest 236 272 4,200 2,580 Climbing Cleveland Center
10:13AM 42.1450 -83.5322 258° West 281 323 7,600 3,360 Climbing Cleveland Center
10:14AM 42.2241 -83.7530 276° West  Level FlightAware Approximate
10:14AM 42.1592 -83.6281 281° West 289 333 10,800  Level Cleveland Center
10:15AM 42.2337 -83.8879 276° West  Level FlightAware Approximate
10:15AM 42.1686 -83.6733 286° West 292 336 11,700  Level Cleveland Center
10:16AM 42.2434 -84.0229 276° West  Level FlightAware Approximate
10:16AM 42.1867 -83.7753 283° West 308 354 13,000  Level Cleveland Center
10:17AM 42.2100 -83.9081 283° West 333 383 14,100 1,320 Climbing Cleveland Center
10:18AM 42.2247 -84.0408 279° West 353 406 15,700 1,620 Climbing Cleveland Center
10:19AM 42.2019 -84.1683 256° West 358 412 17,400 1,380 Climbing Cleveland Center
10:20AM 42.1750 -84.3014 255° West 358 412 18,500 2,280 Climbing Cleveland Center
10:21AM 42.1494 -84.4372 256° West 368 423 22,000 1,200 Climbing Cleveland Center
10:21AM 42.1400 -84.4997 259° West 368 423 20,600  Descending Chicago Center
10:22AM 42.1081 -84.6592 255° West 366 421 22,000 660 Climbing Chicago Center
10:23AM 42.0811 -84.7969 255° West 377 434 22,000  Level Chicago Center
10:24AM 42.0531 -84.9389 255° West 390 449 22,000  Level Chicago Center
10:25AM 42.0228 -85.0803 254° West 393 452 22,000  Level Chicago Center
10:26AM 41.9800 -85.2342 250° West 390 449 22,000  Level Chicago Center
10:28AM 41.9442 -85.3731 251° West 395 455 22,000  Level Chicago Center
10:29AM 41.9069 -85.5089 250° West 394 453 22,000  Level Chicago Center
10:30AM 41.8694 -85.6431 249° West 391 450 22,000  Level Chicago Center
10:31AM 41.8322 -85.7775 250° West 391 450 22,000  Level Chicago Center
10:32AM 41.7878 -85.9386 250° West 389 448 22,000  Level Chicago Center
10:33AM 41.7506 -86.0725 250° West 388 447 22,000  Level Chicago Center
10:34AM 41.7125 -86.2053 249° West 386 444 22,000  Level Chicago Center
10:35AM 41.6747 -86.3397 249° West 389 448 22,000  Level Chicago Center
10:36AM 41.6372 -86.4736 249° West 386 444 22,000  Level Chicago Center
10:37AM 41.5981 -86.6072 249° West 390 449 22,000  Level Chicago Center
10:38AM 41.5508 -86.7711 249° West 387 445 22,000  Level Chicago Center
10:39AM 41.5119 -86.9028 249° West 385 443 22,000  Level Chicago Center
10:40AM 41.4761 -87.0306 250° West 372 428 22,000  Level Chicago Center
10:41AM 41.4414 -87.1533 249° West 359 413 22,000  Level Chicago Center
10:42AM 41.4044 -87.2764 248° West 360 414 22,000  Level Chicago Center
10:43AM 41.3686 -87.3992 249° West 360 414 22,000 -480 Level Chicago Center
10:44AM 41.3261 -87.5467 249° West 359 413 21,100 -780 Descending Chicago Center
10:45AM 41.2900 -87.6692 249° West 357 411 20,400 -540 Descending Chicago Center
10:46AM 41.2525 -87.7936 248° West 363 418 20,000 -240 Descending Chicago Center
10:47AM 41.2139 -87.9211 248° West 370 426 20,000  Level Chicago Center
10:48AM 41.1758 -88.0492 248° West 373 429 20,000  Level Chicago Center
10:49AM 41.1361 -88.1781 248° West 376 433 20,000  Level Chicago Center
10:50AM 41.0981 -88.3050 248° West 372 428 20,000 -60 Level Chicago Center
10:51AM 41.0597 -88.4325 248° West 373 429 19,900 -1,020 Descending Chicago Center
10:52AM 41.0158 -88.5733 248° West 346 398 18,000 -1,740 Descending Chicago Center
10:53AM 40.9814 -88.6881 248° West 336 387 16,400 -1,560 Descending Chicago Center
10:54AM 40.9464 -88.8019 248° West 335 386 14,800 -1,680 Descending Chicago Center
10:55AM 40.9089 -88.9203 247° West 335 386 13,000 -1,680 Descending Chicago Center
10:56AM 40.8822 -89.0283 252° West 315 362 11,400 -1,680 Descending Chicago Center
10:57AM 40.8572 -89.1261 251° West 288 331 9,600 -1,800 Descending Chicago Center
10:58AM 40.8336 -89.2233 252° West 281 323 7,800 -1,800 Descending Chicago Center
10:59AM 40.8100 -89.3178 252° West 274 315 6,000 -1,740 Descending Chicago Center
11:00AM 40.7867 -89.4083 251° West 265 305 4,200 -1,200 Descending Chicago Center
11:02AM 40.7622 -89.5044 251° West 227 261 3,500 -600 Descending Chicago Center
11:03AM 40.7489 -89.5664 254° West 198 228 3,000 -660 Descending Chicago Center
11:04AM 40.7272 -89.6178 241° Southwest 178 205 2,200 -840 Descending Chicago Center